sensor_id;sensor_type;location;lat;lon;timestamp;temperature;humidity
13707;DHT22;6925;47.816;13.072;2023-12-29T00:00:51;8.60;54.00
13707;DHT22;6925;47.816;13.072;2023-12-29T00:03:18;8.60;53.50
13707;DHT22;6925;47.816;13.072;2023-12-29T00:05:45;8.60;53.50
13707;DHT22;6925;47.816;13.072;2023-12-29T00:08:12;8.50;53.40
13707;DHT22;6925;47.816;13.072;2023-12-29T00:10:40;8.50;53.60
13707;DHT22;6925;47.816;13.072;2023-12-29T00:13:07;8.50;53.90
13707;DHT22;6925;47.816;13.072;2023-12-29T00:15:34;8.50;54.10
13707;DHT22;6925;47.816;13.072;2023-12-29T00:18:02;8.60;54.50
13707;DHT22;6925;47.816;13.072;2023-12-29T00:20:30;8.60;55.40
13707;DHT22;6925;47.816;13.072;2023-12-29T00:22:57;8.60;55.30
13707;DHT22;6925;47.816;13.072;2023-12-29T00:25:25;8.60;54.10
13707;DHT22;6925;47.816;13.072;2023-12-29T00:27:52;8.60;54.10
13707;DHT22;6925;47.816;13.072;2023-12-29T00:30:19;8.60;54.50
13707;DHT22;6925;47.816;13.072;2023-12-29T00:32:47;8.60;55.90
13707;DHT22;6925;47.816;13.072;2023-12-29T00:35:15;8.70;56.20
13707;DHT22;6925;47.816;13.072;2023-12-29T00:37:41;8.70;55.60
13707;DHT22;6925;47.816;13.072;2023-12-29T00:40:09;8.70;56.00
13707;DHT22;6925;47.816;13.072;2023-12-29T00:42:36;8.70;56.20
13707;DHT22;6925;47.816;13.072;2023-12-29T00:45:04;8.70;56.70
13707;DHT22;6925;47.816;13.072;2023-12-29T00:47:31;8.70;56.60
13707;DHT22;6925;47.816;13.072;2023-12-29T00:49:59;8.70;56.70
13707;DHT22;6925;47.816;13.072;2023-12-29T00:52:28;8.70;56.30
13707;DHT22;6925;47.816;13.072;2023-12-29T00:54:55;8.70;56.60
13707;DHT22;6925;47.816;13.072;2023-12-29T00:57:22;8.60;57.20
13707;DHT22;6925;47.816;13.072;2023-12-29T00:59:49;8.60;57.20
13707;DHT22;6925;47.816;13.072;2023-12-29T01:02:16;8.60;57.10
13707;DHT22;6925;47.816;13.072;2023-12-29T01:04:43;8.60;57.50
13707;DHT22;6925;47.816;13.072;2023-12-29T01:07:10;8.60;57.70
13707;DHT22;6925;47.816;13.072;2023-12-29T01:09:39;8.60;58.10
13707;DHT22;6925;47.816;13.072;2023-12-29T01:12:07;8.60;58.00
13707;DHT22;6925;47.816;13.072;2023-12-29T01:14:34;8.60;57.00
13707;DHT22;6925;47.816;13.072;2023-12-29T01:17:01;8.60;56.30
13707;DHT22;6925;47.816;13.072;2023-12-29T01:19:28;8.70;57.10
13707;DHT22;6925;47.816;13.072;2023-12-29T01:21:55;8.60;57.80
13707;DHT22;6925;47.816;13.072;2023-12-29T01:24:22;8.60;58.80
13707;DHT22;6925;47.816;13.072;2023-12-29T01:26:51;8.50;57.00
13707;DHT22;6925;47.816;13.072;2023-12-29T01:29:18;8.40;55.70
13707;DHT22;6925;47.816;13.072;2023-12-29T01:31:45;8.30;55.60
13707;DHT22;6925;47.816;13.072;2023-12-29T01:34:13;8.20;55.50
13707;DHT22;6925;47.816;13.072;2023-12-29T01:36:40;8.10;55.70
13707;DHT22;6925;47.816;13.072;2023-12-29T01:39:07;8.10;55.80
13707;DHT22;6925;47.816;13.072;2023-12-29T01:41:34;8.00;55.40
13707;DHT22;6925;47.816;13.072;2023-12-29T01:44:21;7.90;55.80
13707;DHT22;6925;47.816;13.072;2023-12-29T01:46:50;7.90;56.20
13707;DHT22;6925;47.816;13.072;2023-12-29T01:49:19;8.00;56.30
13707;DHT22;6925;47.816;13.072;2023-12-29T01:51:49;8.10;56.80
13707;DHT22;6925;47.816;13.072;2023-12-29T01:54:18;8.20;55.90
13707;DHT22;6925;47.816;13.072;2023-12-29T01:56:46;8.20;56.00
13707;DHT22;6925;47.816;13.072;2023-12-29T01:59:15;8.10;55.80
13707;DHT22;6925;47.816;13.072;2023-12-29T02:01:44;8.00;55.70
13707;DHT22;6925;47.816;13.072;2023-12-29T02:04:12;8.00;55.80
13707;DHT22;6925;47.816;13.072;2023-12-29T02:06:40;8.00;55.60
13707;DHT22;6925;47.816;13.072;2023-12-29T02:09:08;8.00;57.50
13707;DHT22;6925;47.816;13.072;2023-12-29T02:11:35;8.00;57.70
13707;DHT22;6925;47.816;13.072;2023-12-29T02:14:03;7.90;56.90
13707;DHT22;6925;47.816;13.072;2023-12-29T02:16:35;7.90;56.60
13707;DHT22;6925;47.816;13.072;2023-12-29T02:19:20;7.80;56.40
13707;DHT22;6925;47.816;13.072;2023-12-29T02:21:51;7.70;56.50
13707;DHT22;6925;47.816;13.072;2023-12-29T02:24:18;7.70;56.90
13707;DHT22;6925;47.816;13.072;2023-12-29T02:26:52;7.80;57.50
13707;DHT22;6925;47.816;13.072;2023-12-29T02:29:25;7.80;57.40
13707;DHT22;6925;47.816;13.072;2023-12-29T02:31:55;7.80;58.40
13707;DHT22;6925;47.816;13.072;2023-12-29T02:34:27;7.70;58.30
13707;DHT22;6925;47.816;13.072;2023-12-29T02:36:56;7.70;57.50
13707;DHT22;6925;47.816;13.072;2023-12-29T02:39:23;7.70;57.50
13707;DHT22;6925;47.816;13.072;2023-12-29T02:41:52;7.70;57.40
13707;DHT22;6925;47.816;13.072;2023-12-29T02:44:19;7.70;57.50
13707;DHT22;6925;47.816;13.072;2023-12-29T02:46:46;7.70;57.50
13707;DHT22;6925;47.816;13.072;2023-12-29T02:49:13;7.60;57.40
13707;DHT22;6925;47.816;13.072;2023-12-29T02:51:40;7.50;57.70
13707;DHT22;6925;47.816;13.072;2023-12-29T02:54:07;7.40;57.80
13707;DHT22;6925;47.816;13.072;2023-12-29T02:56:35;7.30;58.20
13707;DHT22;6925;47.816;13.072;2023-12-29T02:59:03;7.40;58.30
13707;DHT22;6925;47.816;13.072;2023-12-29T03:01:30;7.40;58.10
13707;DHT22;6925;47.816;13.072;2023-12-29T03:03:57;7.40;58.30
13707;DHT22;6925;47.816;13.072;2023-12-29T03:06:24;7.30;58.60
13707;DHT22;6925;47.816;13.072;2023-12-29T03:08:51;7.20;58.00
13707;DHT22;6925;47.816;13.072;2023-12-29T03:11:18;7.20;58.20
13707;DHT22;6925;47.816;13.072;2023-12-29T03:13:46;7.30;58.20
13707;DHT22;6925;47.816;13.072;2023-12-29T03:16:14;7.30;58.00
13707;DHT22;6925;47.816;13.072;2023-12-29T03:18:41;7.20;57.90
13707;DHT22;6925;47.816;13.072;2023-12-29T03:21:08;7.10;58.40
13707;DHT22;6925;47.816;13.072;2023-12-29T03:23:35;7.20;58.40
13707;DHT22;6925;47.816;13.072;2023-12-29T03:26:03;7.20;58.50
13707;DHT22;6925;47.816;13.072;2023-12-29T03:28:30;7.30;58.50
13707;DHT22;6925;47.816;13.072;2023-12-29T03:30:57;7.30;58.50
13707;DHT22;6925;47.816;13.072;2023-12-29T03:33:25;7.20;58.30
13707;DHT22;6925;47.816;13.072;2023-12-29T03:35:53;7.30;58.40
13707;DHT22;6925;47.816;13.072;2023-12-29T03:38:20;7.30;58.50
13707;DHT22;6925;47.816;13.072;2023-12-29T03:40:47;7.30;58.60
13707;DHT22;6925;47.816;13.072;2023-12-29T03:43:14;7.40;58.60
13707;DHT22;6925;47.816;13.072;2023-12-29T03:45:41;7.40;58.30
13707;DHT22;6925;47.816;13.072;2023-12-29T03:48:08;7.40;58.10
13707;DHT22;6925;47.816;13.072;2023-12-29T03:50:37;7.50;58.40
13707;DHT22;6925;47.816;13.072;2023-12-29T03:53:04;7.50;58.70
13707;DHT22;6925;47.816;13.072;2023-12-29T03:55:31;7.60;58.80
13707;DHT22;6925;47.816;13.072;2023-12-29T03:57:58;7.60;58.40
13707;DHT22;6925;47.816;13.072;2023-12-29T04:00:27;7.50;57.70
13707;DHT22;6925;47.816;13.072;2023-12-29T04:02:54;7.40;57.50
13707;DHT22;6925;47.816;13.072;2023-12-29T04:05:21;7.30;57.50
13707;DHT22;6925;47.816;13.072;2023-12-29T04:07:50;7.20;57.50
13707;DHT22;6925;47.816;13.072;2023-12-29T04:10:17;7.20;57.90
13707;DHT22;6925;47.816;13.072;2023-12-29T04:12:44;7.20;57.90
13707;DHT22;6925;47.816;13.072;2023-12-29T04:15:11;7.30;57.40
13707;DHT22;6925;47.816;13.072;2023-12-29T04:17:39;7.30;57.90
13707;DHT22;6925;47.816;13.072;2023-12-29T04:20:07;7.30;57.90
13707;DHT22;6925;47.816;13.072;2023-12-29T04:22:34;7.30;57.30
13707;DHT22;6925;47.816;13.072;2023-12-29T04:25:03;7.30;57.50
13707;DHT22;6925;47.816;13.072;2023-12-29T04:27:30;7.30;57.50
13707;DHT22;6925;47.816;13.072;2023-12-29T04:29:57;7.40;57.80
13707;DHT22;6925;47.816;13.072;2023-12-29T04:32:24;7.60;58.40
13707;DHT22;6925;47.816;13.072;2023-12-29T04:34:51;7.60;58.70
13707;DHT22;6925;47.816;13.072;2023-12-29T04:37:18;7.70;58.40
13707;DHT22;6925;47.816;13.072;2023-12-29T04:39:45;7.80;58.40
13707;DHT22;6925;47.816;13.072;2023-12-29T04:42:14;7.90;58.00
13707;DHT22;6925;47.816;13.072;2023-12-29T04:44:42;7.90;57.70
13707;DHT22;6925;47.816;13.072;2023-12-29T04:47:09;7.90;57.50
13707;DHT22;6925;47.816;13.072;2023-12-29T04:49:36;7.90;57.20
13707;DHT22;6925;47.816;13.072;2023-12-29T04:52:04;7.90;56.80
13707;DHT22;6925;47.816;13.072;2023-12-29T04:54:31;7.90;56.60
13707;DHT22;6925;47.816;13.072;2023-12-29T04:56:59;8.00;56.60
13707;DHT22;6925;47.816;13.072;2023-12-29T04:59:27;8.00;56.40
13707;DHT22;6925;47.816;13.072;2023-12-29T05:01:55;8.00;56.00
13707;DHT22;6925;47.816;13.072;2023-12-29T05:04:22;7.90;56.10
13707;DHT22;6925;47.816;13.072;2023-12-29T05:06:49;7.90;56.30
13707;DHT22;6925;47.816;13.072;2023-12-29T05:09:16;7.90;56.30
13707;DHT22;6925;47.816;13.072;2023-12-29T05:11:43;8.00;56.20
13707;DHT22;6925;47.816;13.072;2023-12-29T05:14:11;8.00;56.00
13707;DHT22;6925;47.816;13.072;2023-12-29T05:16:39;8.00;55.80
13707;DHT22;6925;47.816;13.072;2023-12-29T05:19:06;7.90;56.10
13707;DHT22;6925;47.816;13.072;2023-12-29T05:21:34;7.90;56.30
13707;DHT22;6925;47.816;13.072;2023-12-29T05:24:01;7.80;56.20
13707;DHT22;6925;47.816;13.072;2023-12-29T05:26:29;7.80;56.40
13707;DHT22;6925;47.816;13.072;2023-12-29T05:28:56;7.90;56.80
13707;DHT22;6925;47.816;13.072;2023-12-29T05:31:24;7.90;56.80
13707;DHT22;6925;47.816;13.072;2023-12-29T05:33:52;8.00;57.00
13707;DHT22;6925;47.816;13.072;2023-12-29T05:36:20;8.00;56.70
13707;DHT22;6925;47.816;13.072;2023-12-29T05:38:48;8.10;56.60
13707;DHT22;6925;47.816;13.072;2023-12-29T05:41:15;8.10;57.30
13707;DHT22;6925;47.816;13.072;2023-12-29T05:43:43;8.10;57.50
13707;DHT22;6925;47.816;13.072;2023-12-29T05:46:10;8.10;58.00
13707;DHT22;6925;47.816;13.072;2023-12-29T05:48:38;8.10;56.80
13707;DHT22;6925;47.816;13.072;2023-12-29T05:51:10;8.10;56.90
13707;DHT22;6925;47.816;13.072;2023-12-29T05:53:39;8.10;56.70
13707;DHT22;6925;47.816;13.072;2023-12-29T05:56:07;8.10;56.30
13707;DHT22;6925;47.816;13.072;2023-12-29T05:58:34;8.20;56.20
13707;DHT22;6925;47.816;13.072;2023-12-29T06:01:01;8.20;55.90
13707;DHT22;6925;47.816;13.072;2023-12-29T06:03:28;8.10;55.50
13707;DHT22;6925;47.816;13.072;2023-12-29T06:05:56;8.10;55.70
13707;DHT22;6925;47.816;13.072;2023-12-29T06:08:24;8.00;55.60
13707;DHT22;6925;47.816;13.072;2023-12-29T06:10:51;8.00;55.90
13707;DHT22;6925;47.816;13.072;2023-12-29T06:13:18;8.00;56.10
13707;DHT22;6925;47.816;13.072;2023-12-29T06:15:46;8.00;55.90
13707;DHT22;6925;47.816;13.072;2023-12-29T06:18:13;8.00;56.30
13707;DHT22;6925;47.816;13.072;2023-12-29T06:20:40;8.00;56.20
13707;DHT22;6925;47.816;13.072;2023-12-29T06:23:07;8.10;57.00
13707;DHT22;6925;47.816;13.072;2023-12-29T06:25:36;8.10;58.00
13707;DHT22;6925;47.816;13.072;2023-12-29T06:28:05;8.20;58.40
13707;DHT22;6925;47.816;13.072;2023-12-29T06:30:32;8.10;58.30
13707;DHT22;6925;47.816;13.072;2023-12-29T06:33:00;8.10;58.00
13707;DHT22;6925;47.816;13.072;2023-12-29T06:35:27;8.10;58.10
13707;DHT22;6925;47.816;13.072;2023-12-29T06:37:54;8.10;58.30
13707;DHT22;6925;47.816;13.072;2023-12-29T06:40:21;8.20;58.20
13707;DHT22;6925;47.816;13.072;2023-12-29T06:42:50;8.20;57.20
13707;DHT22;6925;47.816;13.072;2023-12-29T06:45:17;8.20;57.10
13707;DHT22;6925;47.816;13.072;2023-12-29T06:47:44;8.30;56.90
13707;DHT22;6925;47.816;13.072;2023-12-29T06:50:11;8.30;57.00
13707;DHT22;6925;47.816;13.072;2023-12-29T06:52:39;8.30;57.80
13707;DHT22;6925;47.816;13.072;2023-12-29T06:55:07;8.30;58.70
13707;DHT22;6925;47.816;13.072;2023-12-29T06:57:34;8.30;59.30
13707;DHT22;6925;47.816;13.072;2023-12-29T07:00:05;8.30;59.10
13707;DHT22;6925;47.816;13.072;2023-12-29T07:02:32;8.20;59.10
13707;DHT22;6925;47.816;13.072;2023-12-29T07:04:59;8.20;59.60
13707;DHT22;6925;47.816;13.072;2023-12-29T07:07:27;8.30;59.40
13707;DHT22;6925;47.816;13.072;2023-12-29T07:09:54;8.30;59.60
13707;DHT22;6925;47.816;13.072;2023-12-29T07:12:21;8.30;59.70
13707;DHT22;6925;47.816;13.072;2023-12-29T07:14:48;8.30;60.70
13707;DHT22;6925;47.816;13.072;2023-12-29T07:17:17;8.20;58.80
13707;DHT22;6925;47.816;13.072;2023-12-29T07:19:44;8.20;58.70
13707;DHT22;6925;47.816;13.072;2023-12-29T07:22:11;8.20;58.40
13707;DHT22;6925;47.816;13.072;2023-12-29T07:24:38;8.20;58.50
13707;DHT22;6925;47.816;13.072;2023-12-29T07:27:06;8.30;58.00
13707;DHT22;6925;47.816;13.072;2023-12-29T07:29:34;8.30;57.80
13707;DHT22;6925;47.816;13.072;2023-12-29T07:32:01;8.30;57.20
13707;DHT22;6925;47.816;13.072;2023-12-29T07:34:30;8.30;56.60
13707;DHT22;6925;47.816;13.072;2023-12-29T07:36:57;8.20;56.30
13707;DHT22;6925;47.816;13.072;2023-12-29T07:39:25;8.20;56.60
13707;DHT22;6925;47.816;13.072;2023-12-29T07:41:52;8.20;56.50
13707;DHT22;6925;47.816;13.072;2023-12-29T07:44:19;8.30;56.80
13707;DHT22;6925;47.816;13.072;2023-12-29T07:46:47;8.30;56.80
13707;DHT22;6925;47.816;13.072;2023-12-29T07:49:14;8.40;56.90
13707;DHT22;6925;47.816;13.072;2023-12-29T07:51:45;8.40;56.80
13707;DHT22;6925;47.816;13.072;2023-12-29T07:54:13;8.40;56.80
13707;DHT22;6925;47.816;13.072;2023-12-29T07:56:41;8.30;57.00
13707;DHT22;6925;47.816;13.072;2023-12-29T07:59:08;8.30;56.70
13707;DHT22;6925;47.816;13.072;2023-12-29T08:01:35;8.20;56.30
13707;DHT22;6925;47.816;13.072;2023-12-29T08:04:04;8.20;56.50
13707;DHT22;6925;47.816;13.072;2023-12-29T08:06:32;8.10;56.50
13707;DHT22;6925;47.816;13.072;2023-12-29T08:09:01;8.20;56.30
13707;DHT22;6925;47.816;13.072;2023-12-29T08:11:28;8.20;56.80
13707;DHT22;6925;47.816;13.072;2023-12-29T08:13:55;8.20;56.20
13707;DHT22;6925;47.816;13.072;2023-12-29T08:16:22;8.30;56.20
13707;DHT22;6925;47.816;13.072;2023-12-29T08:18:49;8.30;56.00
13707;DHT22;6925;47.816;13.072;2023-12-29T08:21:17;8.30;56.00
13707;DHT22;6925;47.816;13.072;2023-12-29T08:23:45;8.30;56.00
13707;DHT22;6925;47.816;13.072;2023-12-29T08:26:15;8.30;55.90
13707;DHT22;6925;47.816;13.072;2023-12-29T08:28:42;8.30;55.90
13707;DHT22;6925;47.816;13.072;2023-12-29T08:31:10;8.30;55.70
13707;DHT22;6925;47.816;13.072;2023-12-29T08:33:38;8.30;55.40
13707;DHT22;6925;47.816;13.072;2023-12-29T08:36:06;8.40;55.60
13707;DHT22;6925;47.816;13.072;2023-12-29T08:38:33;8.40;55.60
13707;DHT22;6925;47.816;13.072;2023-12-29T08:41:00;8.40;55.80
13707;DHT22;6925;47.816;13.072;2023-12-29T08:43:29;8.50;56.00
13707;DHT22;6925;47.816;13.072;2023-12-29T08:45:56;8.50;55.70
13707;DHT22;6925;47.816;13.072;2023-12-29T08:48:23;8.60;55.70
13707;DHT22;6925;47.816;13.072;2023-12-29T08:50:50;8.70;55.90
13707;DHT22;6925;47.816;13.072;2023-12-29T08:53:17;8.70;55.60
13707;DHT22;6925;47.816;13.072;2023-12-29T08:55:45;8.80;56.20
13707;DHT22;6925;47.816;13.072;2023-12-29T08:58:12;8.90;55.90
13707;DHT22;6925;47.816;13.072;2023-12-29T09:00:40;8.90;55.30
13707;DHT22;6925;47.816;13.072;2023-12-29T09:03:08;9.00;55.80
13707;DHT22;6925;47.816;13.072;2023-12-29T09:05:35;9.00;55.70
13707;DHT22;6925;47.816;13.072;2023-12-29T09:08:02;9.10;55.40
13707;DHT22;6925;47.816;13.072;2023-12-29T09:10:30;9.10;54.40
13707;DHT22;6925;47.816;13.072;2023-12-29T09:12:57;9.10;55.00
13707;DHT22;6925;47.816;13.072;2023-12-29T09:15:24;9.10;54.60
13707;DHT22;6925;47.816;13.072;2023-12-29T09:17:53;9.10;54.50
13707;DHT22;6925;47.816;13.072;2023-12-29T09:20:20;9.00;54.60
13707;DHT22;6925;47.816;13.072;2023-12-29T09:22:47;9.10;55.00
13707;DHT22;6925;47.816;13.072;2023-12-29T09:25:14;9.10;54.70
13707;DHT22;6925;47.816;13.072;2023-12-29T09:27:41;9.10;54.60
13707;DHT22;6925;47.816;13.072;2023-12-29T09:30:10;9.10;54.60
13707;DHT22;6925;47.816;13.072;2023-12-29T09:32:37;9.10;54.40
13707;DHT22;6925;47.816;13.072;2023-12-29T09:35:06;9.00;54.60
13707;DHT22;6925;47.816;13.072;2023-12-29T09:37:33;9.00;54.70
13707;DHT22;6925;47.816;13.072;2023-12-29T09:40:00;9.00;54.70
13707;DHT22;6925;47.816;13.072;2023-12-29T09:42:28;9.00;54.50
13707;DHT22;6925;47.816;13.072;2023-12-29T09:44:56;9.10;54.60
13707;DHT22;6925;47.816;13.072;2023-12-29T09:47:25;9.10;54.70
13707;DHT22;6925;47.816;13.072;2023-12-29T09:49:52;9.10;54.50
13707;DHT22;6925;47.816;13.072;2023-12-29T09:52:22;9.20;55.10
13707;DHT22;6925;47.816;13.072;2023-12-29T09:54:51;9.20;54.90
13707;DHT22;6925;47.816;13.072;2023-12-29T09:57:19;9.20;54.50
13707;DHT22;6925;47.816;13.072;2023-12-29T09:59:49;9.30;55.00
13707;DHT22;6925;47.816;13.072;2023-12-29T10:02:17;9.40;55.10
13707;DHT22;6925;47.816;13.072;2023-12-29T10:04:47;9.50;55.30
13707;DHT22;6925;47.816;13.072;2023-12-29T10:07:23;9.50;54.60
13707;DHT22;6925;47.816;13.072;2023-12-29T10:09:53;9.50;55.10
13707;DHT22;6925;47.816;13.072;2023-12-29T10:12:20;9.60;55.40
13707;DHT22;6925;47.816;13.072;2023-12-29T10:14:55;9.60;54.50
13707;DHT22;6925;47.816;13.072;2023-12-29T10:17:36;9.40;54.80
13707;DHT22;6925;47.816;13.072;2023-12-29T10:20:10;9.40;55.20
13707;DHT22;6925;47.816;13.072;2023-12-29T10:22:48;9.40;55.20
13707;DHT22;6925;47.816;13.072;2023-12-29T10:25:16;9.40;55.20
13707;DHT22;6925;47.816;13.072;2023-12-29T10:27:45;9.50;55.50
13707;DHT22;6925;47.816;13.072;2023-12-29T10:30:13;9.60;55.10
13707;DHT22;6925;47.816;13.072;2023-12-29T10:32:40;9.70;55.80
13707;DHT22;6925;47.816;13.072;2023-12-29T10:35:11;9.80;54.90
13707;DHT22;6925;47.816;13.072;2023-12-29T10:37:38;9.80;54.70
13707;DHT22;6925;47.816;13.072;2023-12-29T10:40:08;9.80;54.80
13707;DHT22;6925;47.816;13.072;2023-12-29T10:42:35;10.00;54.80
13707;DHT22;6925;47.816;13.072;2023-12-29T10:45:06;10.10;56.00
13707;DHT22;6925;47.816;13.072;2023-12-29T10:47:33;10.30;56.80
13707;DHT22;6925;47.816;13.072;2023-12-29T10:50:02;10.70;57.00
13707;DHT22;6925;47.816;13.072;2023-12-29T10:52:31;11.00;56.90
13707;DHT22;6925;47.816;13.072;2023-12-29T10:55:08;11.30;55.70
13707;DHT22;6925;47.816;13.072;2023-12-29T10:57:36;11.60;55.40
13707;DHT22;6925;47.816;13.072;2023-12-29T11:00:04;11.60;53.80
13707;DHT22;6925;47.816;13.072;2023-12-29T11:02:33;11.70;55.20
13707;DHT22;6925;47.816;13.072;2023-12-29T11:05:04;11.90;54.40
13707;DHT22;6925;47.816;13.072;2023-12-29T11:07:36;12.10;53.20
13707;DHT22;6925;47.816;13.072;2023-12-29T11:10:06;12.20;54.10
13707;DHT22;6925;47.816;13.072;2023-12-29T11:12:36;12.60;55.40
13707;DHT22;6925;47.816;13.072;2023-12-29T11:15:05;12.90;54.60
13707;DHT22;6925;47.816;13.072;2023-12-29T11:17:35;13.20;53.50
13707;DHT22;6925;47.816;13.072;2023-12-29T11:20:03;13.40;54.60
13707;DHT22;6925;47.816;13.072;2023-12-29T11:22:55;13.60;54.00
13707;DHT22;6925;47.816;13.072;2023-12-29T11:25:23;14.00;55.40
13707;DHT22;6925;47.816;13.072;2023-12-29T11:27:52;14.60;56.40
13707;DHT22;6925;47.816;13.072;2023-12-29T11:30:20;15.10;54.70
13707;DHT22;6925;47.816;13.072;2023-12-29T11:32:51;15.30;51.40
13707;DHT22;6925;47.816;13.072;2023-12-29T11:35:20;15.50;50.10
13707;DHT22;6925;47.816;13.072;2023-12-29T11:37:59;15.60;48.60
13707;DHT22;6925;47.816;13.072;2023-12-29T11:40:33;15.70;47.70
13707;DHT22;6925;47.816;13.072;2023-12-29T11:43:08;15.80;47.50
13707;DHT22;6925;47.816;13.072;2023-12-29T11:45:36;15.80;47.30
13707;DHT22;6925;47.816;13.072;2023-12-29T11:48:05;15.80;46.90
13707;DHT22;6925;47.816;13.072;2023-12-29T11:50:34;15.80;46.60
13707;DHT22;6925;47.816;13.072;2023-12-29T11:53:02;15.90;47.40
13707;DHT22;6925;47.816;13.072;2023-12-29T11:55:35;16.00;46.90
13707;DHT22;6925;47.816;13.072;2023-12-29T11:58:02;16.20;46.80
13707;DHT22;6925;47.816;13.072;2023-12-29T12:00:46;16.50;47.50
13707;DHT22;6925;47.816;13.072;2023-12-29T12:03:15;16.90;47.80
13707;DHT22;6925;47.816;13.072;2023-12-29T12:05:46;17.30;48.30
13707;DHT22;6925;47.816;13.072;2023-12-29T12:08:32;17.50;46.60
13707;DHT22;6925;47.816;13.072;2023-12-29T12:14:01;18.30;47.70
13707;DHT22;6925;47.816;13.072;2023-12-29T12:16:49;18.70;48.00
13707;DHT22;6925;47.816;13.072;2023-12-29T12:19:20;19.00;46.90
13707;DHT22;6925;47.816;13.072;2023-12-29T12:21:53;19.20;46.40
13707;DHT22;6925;47.816;13.072;2023-12-29T12:24:20;19.10;44.40
13707;DHT22;6925;47.816;13.072;2023-12-29T12:26:48;19.00;44.00
13707;DHT22;6925;47.816;13.072;2023-12-29T12:29:17;19.10;45.60
13707;DHT22;6925;47.816;13.072;2023-12-29T12:31:56;19.40;45.80
13707;DHT22;6925;47.816;13.072;2023-12-29T12:34:24;19.80;44.50
13707;DHT22;6925;47.816;13.072;2023-12-29T12:36:52;19.70;43.20
13707;DHT22;6925;47.816;13.072;2023-12-29T12:39:22;19.50;42.20
13707;DHT22;6925;47.816;13.072;2023-12-29T12:41:50;19.10;41.80
13707;DHT22;6925;47.816;13.072;2023-12-29T12:44:17;18.90;42.90
13707;DHT22;6925;47.816;13.072;2023-12-29T12:46:50;19.00;45.00
13707;DHT22;6925;47.816;13.072;2023-12-29T12:49:20;19.00;43.50
13707;DHT22;6925;47.816;13.072;2023-12-29T12:51:48;19.10;44.20
13707;DHT22;6925;47.816;13.072;2023-12-29T12:54:18;19.20;43.00
13707;DHT22;6925;47.816;13.072;2023-12-29T12:56:46;19.10;43.30
13707;DHT22;6925;47.816;13.072;2023-12-29T12:59:15;19.00;42.60
13707;DHT22;6925;47.816;13.072;2023-12-29T13:01:43;18.90;42.90
13707;DHT22;6925;47.816;13.072;2023-12-29T13:04:11;18.90;43.70
13707;DHT22;6925;47.816;13.072;2023-12-29T13:06:42;18.90;43.60
13707;DHT22;6925;47.816;13.072;2023-12-29T13:09:10;18.80;43.90
13707;DHT22;6925;47.816;13.072;2023-12-29T13:11:38;18.70;43.60
13707;DHT22;6925;47.816;13.072;2023-12-29T13:14:06;18.50;43.40
13707;DHT22;6925;47.816;13.072;2023-12-29T13:16:33;18.40;44.20
13707;DHT22;6925;47.816;13.072;2023-12-29T13:19:17;18.30;44.00
13707;DHT22;6925;47.816;13.072;2023-12-29T13:21:50;18.30;44.40
13707;DHT22;6925;47.816;13.072;2023-12-29T13:24:20;18.40;45.40
13707;DHT22;6925;47.816;13.072;2023-12-29T13:26:50;18.50;45.30
13707;DHT22;6925;47.816;13.072;2023-12-29T13:29:18;18.30;44.00
13707;DHT22;6925;47.816;13.072;2023-12-29T13:31:46;18.10;44.20
13707;DHT22;6925;47.816;13.072;2023-12-29T13:34:17;17.80;44.70
13707;DHT22;6925;47.816;13.072;2023-12-29T13:36:51;17.80;45.20
13707;DHT22;6925;47.816;13.072;2023-12-29T13:39:31;17.80;45.20
13707;DHT22;6925;47.816;13.072;2023-12-29T13:42:04;17.70;45.90
13707;DHT22;6925;47.816;13.072;2023-12-29T13:44:32;17.80;46.40
13707;DHT22;6925;47.816;13.072;2023-12-29T13:47:01;17.70;46.10
13707;DHT22;6925;47.816;13.072;2023-12-29T13:49:29;17.60;46.60
13707;DHT22;6925;47.816;13.072;2023-12-29T13:52:02;17.40;46.80
13707;DHT22;6925;47.816;13.072;2023-12-29T13:54:30;17.20;47.00
13707;DHT22;6925;47.816;13.072;2023-12-29T13:56:57;17.10;47.20
13707;DHT22;6925;47.816;13.072;2023-12-29T13:59:30;17.10;47.40
13707;DHT22;6925;47.816;13.072;2023-12-29T14:01:59;17.10;47.80
13707;DHT22;6925;47.816;13.072;2023-12-29T14:04:29;17.10;47.80
13707;DHT22;6925;47.816;13.072;2023-12-29T14:07:01;17.00;48.10
13707;DHT22;6925;47.816;13.072;2023-12-29T14:09:29;16.90;48.10
13707;DHT22;6925;47.816;13.072;2023-12-29T14:11:56;16.80;48.40
13707;DHT22;6925;47.816;13.072;2023-12-29T14:14:24;16.80;48.90
13707;DHT22;6925;47.816;13.072;2023-12-29T14:16:51;16.70;49.90
13707;DHT22;6925;47.816;13.072;2023-12-29T14:19:19;16.50;49.80
13707;DHT22;6925;47.816;13.072;2023-12-29T14:21:49;16.40;50.10
13707;DHT22;6925;47.816;13.072;2023-12-29T14:24:18;16.30;50.30
13707;DHT22;6925;47.816;13.072;2023-12-29T14:26:54;16.30;50.40
13707;DHT22;6925;47.816;13.072;2023-12-29T14:29:24;16.10;49.80
13707;DHT22;6925;47.816;13.072;2023-12-29T14:31:52;16.00;50.30
13707;DHT22;6925;47.816;13.072;2023-12-29T14:34:20;15.90;51.10
13707;DHT22;6925;47.816;13.072;2023-12-29T14:36:47;15.80;50.60
13707;DHT22;6925;47.816;13.072;2023-12-29T14:39:14;15.70;51.40
13707;DHT22;6925;47.816;13.072;2023-12-29T14:41:43;15.60;51.80
13707;DHT22;6925;47.816;13.072;2023-12-29T14:44:11;15.50;52.00
13707;DHT22;6925;47.816;13.072;2023-12-29T14:46:38;15.40;52.30
13707;DHT22;6925;47.816;13.072;2023-12-29T14:49:05;15.30;52.50
13707;DHT22;6925;47.816;13.072;2023-12-29T14:51:33;15.20;52.60
13707;DHT22;6925;47.816;13.072;2023-12-29T14:54:00;15.10;52.90
13707;DHT22;6925;47.816;13.072;2023-12-29T14:56:29;15.00;53.30
13707;DHT22;6925;47.816;13.072;2023-12-29T14:58:57;14.90;53.50
13707;DHT22;6925;47.816;13.072;2023-12-29T15:01:24;14.80;53.30
13707;DHT22;6925;47.816;13.072;2023-12-29T15:03:52;14.70;53.50
13707;DHT22;6925;47.816;13.072;2023-12-29T15:06:19;14.60;53.70
13707;DHT22;6925;47.816;13.072;2023-12-29T15:08:46;14.50;54.10
13707;DHT22;6925;47.816;13.072;2023-12-29T15:11:14;14.40;52.20
13707;DHT22;6925;47.816;13.072;2023-12-29T15:13:41;14.20;51.90
13707;DHT22;6925;47.816;13.072;2023-12-29T15:16:09;14.10;52.70
13707;DHT22;6925;47.816;13.072;2023-12-29T15:18:36;13.90;50.90
13707;DHT22;6925;47.816;13.072;2023-12-29T15:21:04;13.70;50.20
13707;DHT22;6925;47.816;13.072;2023-12-29T15:23:31;13.60;51.20
13707;DHT22;6925;47.816;13.072;2023-12-29T15:25:58;13.50;51.10
13707;DHT22;6925;47.816;13.072;2023-12-29T15:28:25;13.40;53.10
13707;DHT22;6925;47.816;13.072;2023-12-29T15:30:52;13.30;53.80
13707;DHT22;6925;47.816;13.072;2023-12-29T15:33:21;13.10;54.60
13707;DHT22;6925;47.816;13.072;2023-12-29T15:35:49;13.10;55.10
13707;DHT22;6925;47.816;13.072;2023-12-29T15:38:16;13.00;55.00
13707;DHT22;6925;47.816;13.072;2023-12-29T15:40:45;12.90;55.10
13707;DHT22;6925;47.816;13.072;2023-12-29T15:43:12;12.90;55.50
13707;DHT22;6925;47.816;13.072;2023-12-29T15:45:39;12.70;54.60
13707;DHT22;6925;47.816;13.072;2023-12-29T15:48:07;12.60;53.10
13707;DHT22;6925;47.816;13.072;2023-12-29T15:50:35;12.40;52.60